Time;durP1;ratioP1;P1;durP2;ratioP2;P2;SDS_P1;SDS_P2;PMS_P1;PMS_P2;Temp;Humidity;BMP_temperature;BMP_pressure;BME280_temperature;BME280_humidity;BME280_pressure;Samples;Min_cycle;Max_cycle;Signal;HPM_P1;HPM_P2
2021/08/20 00:01:23;;;;;;;;;4.00;4.00;;;;;;;;5162205;27;45235;-73
2021/08/20 00:03:48;;;;;;;;;6.67;6.67;;;;;;;;5143286;27;45347;-72
2021/08/20 00:06:13;;;;;;;;;6.33;6.33;;;;;;;;5143290;27;46821;-73
2021/08/20 00:08:39;;;;;;;;;6.33;5.67;;;;;;;;5163048;27;45354;-73
2021/08/20 00:11:04;;;;;;;;;6.33;5.00;;;;;;;;5166062;27;45300;-72
2021/08/20 00:13:30;;;;;;;;;5.33;5.33;;;;;;;;5165837;27;45287;-72
2021/08/20 00:15:56;;;;;;;;;5.00;5.00;;;;;;;;5165521;27;45304;-73
2021/08/20 00:18:24;;;;;;;;;7.00;7.00;;;;;;;;5165710;27;45198;-72
2021/08/20 00:20:49;;;;;;;;;6.67;5.00;;;;;;;;5146609;27;45338;-72
2021/08/20 00:23:15;;;;;;;;;5.33;4.67;;;;;;;;5146713;27;45869;-72
2021/08/20 00:25:41;;;;;;;;;5.00;5.00;;;;;;;;5146738;27;45892;-73
2021/08/20 00:28:06;;;;;;;;;6.00;6.00;;;;;;;;5165511;27;45274;-72
2021/08/20 00:30:31;;;;;;;;;4.33;4.33;;;;;;;;5146631;27;45329;-72
2021/08/20 00:32:57;;;;;;;;;6.00;6.00;;;;;;;;5146655;27;46706;-72
2021/08/20 00:35:22;;;;;;;;;6.67;6.00;;;;;;;;5165404;27;45338;-72
2021/08/20 00:37:48;;;;;;;;;5.00;5.00;;;;;;;;5165376;27;45286;-72
2021/08/20 00:40:13;;;;;;;;;5.00;5.00;;;;;;;;5146452;27;45446;-72
2021/08/20 00:42:38;;;;;;;;;6.00;6.00;;;;;;;;5165364;27;45518;-72
2021/08/20 00:45:05;;;;;;;;;5.67;4.00;;;;;;;;5146156;27;46741;-72
2021/08/20 00:47:30;;;;;;;;;6.33;5.67;;;;;;;;5146302;27;45384;-72
2021/08/20 00:49:55;;;;;;;;;7.00;7.00;;;;;;;;5165521;27;45276;-72
2021/08/20 00:52:22;;;;;;;;;6.00;6.00;;;;;;;;5165190;27;45442;-72
2021/08/20 00:54:47;;;;;;;;;6.33;6.33;;;;;;;;5146168;27;48126;-72
2021/08/20 00:57:13;;;;;;;;;9.00;6.00;;;;;;;;5165059;27;45253;-72
2021/08/20 00:59:38;;;;;;;;;8.00;7.00;;;;;;;;5145947;27;45246;-72
2021/08/20 01:02:04;;;;;;;;;6.00;6.00;;;;;;;;5146278;27;45594;-72
2021/08/20 01:04:29;;;;;;;;;8.00;6.00;;;;;;;;5145844;27;46768;-73
2021/08/20 01:06:55;;;;;;;;;6.00;6.00;;;;;;;;5164970;27;45257;-72
2021/08/20 01:09:21;;;;;;;;;3.67;3.67;;;;;;;;5145965;27;45592;-73
2021/08/20 01:11:47;;;;;;;;;5.33;5.33;;;;;;;;5145995;27;46481;-73
2021/08/20 01:14:16;;;;;;;;;5.67;5.67;;;;;;;;5145803;27;47901;-73
2021/08/20 01:16:42;;;;;;;;;7.00;6.00;;;;;;;;5164805;27;45376;-72
2021/08/20 01:19:07;;;;;;;;;5.67;5.67;;;;;;;;5164935;27;45465;-72
2021/08/20 01:21:32;;;;;;;;;8.00;7.00;;;;;;;;5163694;27;45273;-72
2021/08/20 01:23:59;;;;;;;;;5.33;5.33;;;;;;;;5145835;27;46151;-73
2021/08/20 01:26:25;;;;;;;;;7.00;7.00;;;;;;;;5145657;27;45238;-72
2021/08/20 01:28:51;;;;;;;;;7.00;6.00;;;;;;;;5145984;27;45432;-72
2021/08/20 01:31:17;;;;;;;;;5.00;5.00;;;;;;;;5164137;27;45394;-73
2021/08/20 01:33:42;;;;;;;;;4.67;4.67;;;;;;;;5164417;27;45343;-72
2021/08/20 01:36:11;;;;;;;;;5.67;5.00;;;;;;;;5145249;27;45409;-72
2021/08/20 01:38:52;;;;;;;;;7.33;7.33;;;;;;;;5164662;27;45266;-73
2021/08/20 01:41:18;;;;;;;;;4.00;4.00;;;;;;;;5145171;27;46643;-72
2021/08/20 01:43:44;;;;;;;;;5.00;3.33;;;;;;;;5145391;27;47419;-72
2021/08/20 01:46:10;;;;;;;;;7.00;7.00;;;;;;;;5145228;27;45385;-72
2021/08/20 01:48:35;;;;;;;;;7.33;6.33;;;;;;;;5145663;27;45469;-72
2021/08/20 01:51:00;;;;;;;;;7.33;6.33;;;;;;;;5145353;27;46871;-73
2021/08/20 01:53:26;;;;;;;;;5.67;5.67;;;;;;;;5164060;27;46097;-72
2021/08/20 01:55:51;;;;;;;;;7.00;7.00;;;;;;;;5145270;27;45293;-72
2021/08/20 01:58:17;;;;;;;;;7.00;6.00;;;;;;;;5145507;27;45450;-72
2021/08/20 02:00:42;;;;;;;;;6.00;6.00;;;;;;;;5163885;27;45440;-72
2021/08/20 02:03:09;;;;;;;;;5.67;5.33;;;;;;;;5145105;27;46996;-72
2021/08/20 02:05:34;;;;;;;;;7.33;6.00;;;;;;;;5145167;27;45303;-72
2021/08/20 02:08:00;;;;;;;;;5.33;5.00;;;;;;;;5145136;27;45317;-72
2021/08/20 02:10:25;;;;;;;;;5.67;5.33;;;;;;;;5144874;27;46979;-72
2021/08/20 02:12:50;;;;;;;;;7.33;6.00;;;;;;;;5163767;27;45997;-72
2021/08/20 02:15:16;;;;;;;;;6.00;5.33;;;;;;;;5163733;27;45298;-72
2021/08/20 02:17:41;;;;;;;;;6.00;6.00;;;;;;;;5164023;27;45277;-72
2021/08/20 02:20:07;;;;;;;;;5.67;5.67;;;;;;;;5144742;27;45517;-72
2021/08/20 02:22:33;;;;;;;;;6.00;6.00;;;;;;;;5184141;27;45997;-72
2021/08/20 02:24:58;;;;;;;;;7.00;7.00;;;;;;;;5184872;27;45279;-72
2021/08/20 02:27:24;;;;;;;;;7.33;6.00;;;;;;;;5165893;27;45300;-72
2021/08/20 02:29:49;;;;;;;;;6.00;6.00;;;;;;;;5179877;27;45345;-72
2021/08/20 02:32:15;;;;;;;;;7.67;7.00;;;;;;;;5143333;27;47766;-72
2021/08/20 02:34:40;;;;;;;;;3.33;3.33;;;;;;;;5163430;27;45278;-72
2021/08/20 02:37:06;;;;;;;;;5.67;5.67;;;;;;;;5144648;27;45375;-72
2021/08/20 02:39:32;;;;;;;;;8.33;6.00;;;;;;;;5163415;27;45176;-72
2021/08/20 02:41:57;;;;;;;;;8.00;6.00;;;;;;;;5144259;27;47812;-75
2021/08/20 02:44:23;;;;;;;;;6.67;5.00;;;;;;;;5163379;27;45136;-72
2021/08/20 02:46:48;;;;;;;;;7.00;6.00;;;;;;;;5163332;27;45449;-72
2021/08/20 02:49:17;;;;;;;;;8.67;8.67;;;;;;;;5163344;27;45289;-73
2021/08/20 02:51:42;;;;;;;;;8.67;6.33;;;;;;;;5163181;27;45257;-72
2021/08/20 02:54:07;;;;;;;;;6.33;6.33;;;;;;;;5144241;27;45361;-72
2021/08/20 02:56:33;;;;;;;;;7.00;7.00;;;;;;;;5144484;27;45290;-73
2021/08/20 02:58:58;;;;;;;;;7.33;7.33;;;;;;;;5163133;27;45335;-73
2021/08/20 03:01:23;;;;;;;;;6.33;6.33;;;;;;;;5162870;27;46030;-73
2021/08/20 03:03:49;;;;;;;;;7.67;6.67;;;;;;;;5144302;27;45361;-73
2021/08/20 03:06:15;;;;;;;;;7.00;6.00;;;;;;;;5144432;27;45378;-72
2021/08/20 03:08:40;;;;;;;;;7.00;6.00;;;;;;;;5163114;27;45261;-72
2021/08/20 03:11:06;;;;;;;;;3.33;3.33;;;;;;;;5144044;27;46897;-72
2021/08/20 03:13:31;;;;;;;;;5.67;5.67;;;;;;;;5162980;27;45237;-72
2021/08/20 03:15:56;;;;;;;;;6.00;5.33;;;;;;;;5144080;27;45323;-72
2021/08/20 03:18:22;;;;;;;;;7.00;7.00;;;;;;;;5162960;27;45317;-72
2021/08/20 03:20:48;;;;;;;;;5.33;5.33;;;;;;;;5162483;27;45246;-72
2021/08/20 03:23:13;;;;;;;;;7.67;6.67;;;;;;;;5162869;27;45387;-72
2021/08/20 03:25:39;;;;;;;;;6.67;5.67;;;;;;;;5144004;27;45243;-72
2021/08/20 03:28:06;;;;;;;;;5.00;5.00;;;;;;;;5162763;27;45322;-72
2021/08/20 03:30:31;;;;;;;;;6.33;5.00;;;;;;;;5132940;27;47651;-72
2021/08/20 03:32:56;;;;;;;;;6.00;6.00;;;;;;;;5122478;27;45377;-72
2021/08/20 03:35:22;;;;;;;;;6.00;6.00;;;;;;;;5123051;27;45553;-72
2021/08/20 03:37:47;;;;;;;;;7.33;7.33;;;;;;;;5122823;27;45318;-73
2021/08/20 03:40:13;;;;;;;;;5.67;5.00;;;;;;;;5141461;27;45573;-73
2021/08/20 03:42:38;;;;;;;;;4.67;4.67;;;;;;;;5123023;27;45441;-73
2021/08/20 03:45:04;;;;;;;;;6.00;6.00;;;;;;;;5144543;27;46047;-73
2021/08/20 03:47:29;;;;;;;;;5.00;4.33;;;;;;;;5126684;27;46606;-73
2021/08/20 03:49:54;;;;;;;;;7.00;6.00;;;;;;;;5126362;27;46760;-73
2021/08/20 03:52:20;;;;;;;;;4.67;4.67;;;;;;;;5126462;27;45325;-73
2021/08/20 03:54:46;;;;;;;;;7.00;5.33;;;;;;;;5145467;27;45210;-73
2021/08/20 03:57:11;;;;;;;;;4.33;4.33;;;;;;;;5126449;27;46617;-73
2021/08/20 03:59:39;;;;;;;;;6.00;4.33;;;;;;;;5144867;27;46260;-73
2021/08/20 04:02:05;;;;;;;;;7.00;7.00;;;;;;;;5126346;27;45938;-73
2021/08/20 04:04:30;;;;;;;;;6.00;6.00;;;;;;;;5145046;27;45713;-73
2021/08/20 04:06:56;;;;;;;;;5.00;5.00;;;;;;;;5126260;27;45491;-73
2021/08/20 04:09:21;;;;;;;;;6.00;6.00;;;;;;;;5144946;27;45293;-73
2021/08/20 04:11:47;;;;;;;;;5.33;5.00;;;;;;;;5126297;27;45305;-73
2021/08/20 04:14:13;;;;;;;;;6.00;6.00;;;;;;;;5145105;27;45340;-73
2021/08/20 04:16:38;;;;;;;;;5.00;5.00;;;;;;;;5144483;27;45297;-73
2021/08/20 04:19:04;;;;;;;;;5.00;5.00;;;;;;;;5144820;27;45806;-73
2021/08/20 04:21:29;;;;;;;;;5.33;5.33;;;;;;;;5137169;27;45355;-73
2021/08/20 04:23:55;;;;;;;;;6.33;6.33;;;;;;;;5147025;27;45261;-73
2021/08/20 04:26:20;;;;;;;;;5.33;5.33;;;;;;;;5146818;27;45364;-73
2021/08/20 04:28:49;;;;;;;;;7.00;7.00;;;;;;;;5165557;27;46095;-73
2021/08/20 04:31:14;;;;;;;;;6.00;6.00;;;;;;;;5146408;27;45298;-73
2021/08/20 04:33:40;;;;;;;;;8.33;8.00;;;;;;;;5165621;27;46030;-73
2021/08/20 04:36:05;;;;;;;;;5.67;5.67;;;;;;;;5146349;27;45428;-73
2021/08/20 04:38:30;;;;;;;;;7.00;7.00;;;;;;;;5165278;27;46075;-73
2021/08/20 04:40:56;;;;;;;;;6.33;6.33;;;;;;;;5146296;27;45428;-73
2021/08/20 04:43:21;;;;;;;;;7.00;5.33;;;;;;;;5165547;27;45361;-73
2021/08/20 04:45:46;;;;;;;;;6.00;6.00;;;;;;;;5165127;27;45343;-73
2021/08/20 04:48:12;;;;;;;;;6.00;6.00;;;;;;;;5165274;27;45405;-73
2021/08/20 04:50:37;;;;;;;;;7.67;7.00;;;;;;;;5165293;27;45304;-74
2021/08/20 04:53:03;;;;;;;;;8.00;8.00;;;;;;;;5165302;27;45314;-73
2021/08/20 04:55:28;;;;;;;;;7.00;5.00;;;;;;;;5164148;27;45447;-73
2021/08/20 04:57:56;;;;;;;;;6.33;6.33;;;;;;;;5146101;27;47075;-73
2021/08/20 05:00:21;;;;;;;;;7.00;6.00;;;;;;;;5145703;27;45362;-76
2021/08/20 05:02:47;;;;;;;;;9.00;6.33;;;;;;;;5164478;27;45241;-74
2021/08/20 05:05:12;;;;;;;;;6.67;6.00;;;;;;;;5164790;27;45445;-76
2021/08/20 05:07:38;;;;;;;;;7.67;6.00;;;;;;;;5164918;27;45339;-75
2021/08/20 05:10:06;;;;;;;;;7.00;5.00;;;;;;;;5164833;27;45320;-76
2021/08/20 05:12:32;;;;;;;;;6.00;6.00;;;;;;;;5165032;27;45360;-75
2021/08/20 05:14:58;;;;;;;;;6.67;6.67;;;;;;;;5164595;27;45385;-73
2021/08/20 05:17:23;;;;;;;;;7.67;6.33;;;;;;;;5164719;27;46106;-73
2021/08/20 05:19:48;;;;;;;;;7.67;7.67;;;;;;;;5164689;27;45228;-73
2021/08/20 05:22:13;;;;;;;;;5.00;5.00;;;;;;;;5145766;27;45278;-73
2021/08/20 05:24:39;;;;;;;;;7.00;7.00;;;;;;;;5164621;27;45319;-73
2021/08/20 05:27:04;;;;;;;;;7.00;5.00;;;;;;;;5164690;27;45282;-73
2021/08/20 05:29:30;;;;;;;;;7.67;5.33;;;;;;;;5164242;27;45368;-75
2021/08/20 05:31:56;;;;;;;;;8.00;7.67;;;;;;;;5164684;27;45472;-73
2021/08/20 05:34:21;;;;;;;;;7.67;6.00;;;;;;;;5164235;27;45537;-76
2021/08/20 05:36:47;;;;;;;;;7.67;7.67;;;;;;;;5164184;27;45322;-75
2021/08/20 05:39:12;;;;;;;;;5.33;5.33;;;;;;;;5164400;27;45277;-75
2021/08/20 05:41:37;;;;;;;;;7.00;7.00;;;;;;;;5145319;27;45320;-74
2021/08/20 05:44:03;;;;;;;;;7.00;7.00;;;;;;;;5145593;27;45585;-73
2021/08/20 05:46:29;;;;;;;;;5.33;5.33;;;;;;;;5164178;27;45543;-74
2021/08/20 05:48:54;;;;;;;;;7.67;7.00;;;;;;;;5145150;27;45294;-74
2021/08/20 05:51:20;;;;;;;;;7.00;5.67;;;;;;;;5164326;27;45272;-74
2021/08/20 05:53:46;;;;;;;;;8.00;8.00;;;;;;;;5145338;27;45680;-74
2021/08/20 05:56:11;;;;;;;;;11.00;7.33;;;;;;;;5144929;27;47029;-73
2021/08/20 05:58:36;;;;;;;;;6.00;5.67;;;;;;;;5164119;27;45281;-73
2021/08/20 06:01:02;;;;;;;;;6.00;6.00;;;;;;;;5145031;27;45284;-76
2021/08/20 06:03:27;;;;;;;;;8.67;7.67;;;;;;;;5163975;27;45478;-75
2021/08/20 06:05:53;;;;;;;;;8.00;8.00;;;;;;;;5145139;27;46788;-75
2021/08/20 06:08:18;;;;;;;;;7.00;7.00;;;;;;;;5144711;27;45337;-75
2021/08/20 06:10:47;;;;;;;;;7.00;7.00;;;;;;;;5145011;27;45263;-76
2021/08/20 06:13:14;;;;;;;;;7.00;7.00;;;;;;;;5139889;27;45365;-75
2021/08/20 06:15:39;;;;;;;;;7.33;7.00;;;;;;;;5151365;27;45411;-75
2021/08/20 06:18:05;;;;;;;;;7.67;7.67;;;;;;;;5143257;27;45352;-74
2021/08/20 06:20:33;;;;;;;;;9.33;9.00;;;;;;;;5143147;27;45312;-77
2021/08/20 06:22:58;;;;;;;;;8.67;7.67;;;;;;;;5143112;27;45411;-76
2021/08/20 06:25:23;;;;;;;;;7.00;7.00;;;;;;;;5142659;27;46890;-77
2021/08/20 06:27:51;;;;;;;;;9.00;8.00;;;;;;;;5143318;27;45355;-76
2021/08/20 06:30:21;;;;;;;;;8.67;7.67;;;;;;;;5162748;27;45410;-74
2021/08/20 06:32:46;;;;;;;;;10.67;8.00;;;;;;;;5133892;27;45350;-75
2021/08/20 06:35:12;;;;;;;;;8.00;6.67;;;;;;;;5126869;27;45722;-74
2021/08/20 06:37:37;;;;;;;;;6.00;6.00;;;;;;;;5146981;27;45367;-75
2021/08/20 06:40:03;;;;;;;;;7.33;7.33;;;;;;;;5150021;27;45337;-75
2021/08/20 06:42:36;;;;;;;;;7.00;7.00;;;;;;;;5148251;27;45376;-75
2021/08/20 06:45:02;;;;;;;;;8.00;7.67;;;;;;;;5136033;27;45994;-75
2021/08/20 06:47:27;;;;;;;;;7.00;7.00;;;;;;;;5162284;27;45380;-76
2021/08/20 06:49:52;;;;;;;;;6.67;6.67;;;;;;;;5141675;27;45269;-75
2021/08/20 06:52:30;;;;;;;;;9.67;9.67;;;;;;;;5131554;27;45408;-75
2021/08/20 06:55:04;;;;;;;;;10.33;10.33;;;;;;;;5132532;27;45665;-73
2021/08/20 06:57:30;;;;;;;;;6.00;6.00;;;;;;;;5127853;27;45851;-74
2021/08/20 06:59:56;;;;;;;;;9.00;9.00;;;;;;;;5129622;27;45765;-74
2021/08/20 07:02:22;;;;;;;;;7.33;7.33;;;;;;;;5130695;27;46084;-74
2021/08/20 07:04:47;;;;;;;;;6.00;6.00;;;;;;;;5158234;27;45260;-74
2021/08/20 07:07:12;;;;;;;;;9.33;8.33;;;;;;;;5151686;27;45333;-75
2021/08/20 07:09:38;;;;;;;;;9.00;8.00;;;;;;;;5150644;27;45629;-73
2021/08/20 07:12:09;;;;;;;;;8.33;8.33;;;;;;;;5131695;27;45578;-75
2021/08/20 07:14:35;;;;;;;;;9.67;8.00;;;;;;;;5132775;27;46048;-76
2021/08/20 07:17:03;;;;;;;;;8.50;8.50;;;;;;;;5132752;27;45367;-75
2021/08/20 07:19:28;;;;;;;;;8.67;8.67;;;;;;;;5142961;27;45228;-76
2021/08/20 07:21:54;;;;;;;;;6.67;6.67;;;;;;;;5142274;27;46679;-73
2021/08/20 07:24:19;;;;;;;;;6.33;6.00;;;;;;;;5143657;27;46483;-73
2021/08/20 07:26:45;;;;;;;;;7.67;6.67;;;;;;;;5143985;27;45280;-73
2021/08/20 07:29:10;;;;;;;;;8.00;7.33;;;;;;;;5143806;27;45227;-73
2021/08/20 07:31:36;;;;;;;;;7.00;6.00;;;;;;;;5143570;27;46044;-74
2021/08/20 07:34:02;;;;;;;;;8.00;8.00;;;;;;;;5143633;27;46959;-73
2021/08/20 07:36:27;;;;;;;;;7.00;7.00;;;;;;;;5162407;27;45804;-73
2021/08/20 07:38:58;;;;;;;;;7.33;6.00;;;;;;;;5143099;27;45479;-75
2021/08/20 07:41:29;;;;;;;;;8.00;7.00;;;;;;;;5142775;27;46155;-74
2021/08/20 07:44:21;;;;;;;;;6.33;6.33;;;;;;;;5161306;27;45777;-75
2021/08/20 07:47:03;;;;;;;;;7.33;7.33;;;;;;;;5138945;27;45343;-75
2021/08/20 07:49:49;;;;;;;;;10.00;9.33;;;;;;;;5160443;27;45349;-75
2021/08/20 07:52:14;;;;;;;;;7.00;7.00;;;;;;;;5142583;27;45156;-73
2021/08/20 07:54:40;;;;;;;;;6.00;5.00;;;;;;;;5142725;27;45459;-74
2021/08/20 07:57:05;;;;;;;;;8.00;8.00;;;;;;;;5162316;27;45208;-73
2021/08/20 07:59:49;;;;;;;;;6.00;6.00;;;;;;;;5133963;27;47694;-74
2021/08/20 08:02:15;;;;;;;;;8.33;7.33;;;;;;;;5115976;27;45570;-75
2021/08/20 08:04:42;;;;;;;;;7.67;7.67;;;;;;;;5134994;27;46584;-75
2021/08/20 08:07:07;;;;;;;;;8.33;6.67;;;;;;;;5133891;27;45404;-75
2021/08/20 08:09:33;;;;;;;;;4.67;4.33;;;;;;;;5131012;27;45419;-75
2021/08/20 08:11:58;;;;;;;;;6.67;6.67;;;;;;;;5127067;27;45331;-75
2021/08/20 08:14:23;;;;;;;;;7.00;6.33;;;;;;;;5144515;27;45632;-73
2021/08/20 08:16:49;;;;;;;;;6.00;6.00;;;;;;;;5161467;27;45457;-73
2021/08/20 08:19:14;;;;;;;;;6.00;6.00;;;;;;;;5162180;27;45266;-73
2021/08/20 08:21:40;;;;;;;;;6.67;6.67;;;;;;;;5142264;27;45388;-72
2021/08/20 08:24:05;;;;;;;;;5.00;5.00;;;;;;;;5161498;27;45390;-72
2021/08/20 08:26:30;;;;;;;;;7.00;5.67;;;;;;;;5161704;27;45496;-73
2021/08/20 08:28:56;;;;;;;;;7.00;6.00;;;;;;;;5161490;27;45353;-73
2021/08/20 08:31:22;;;;;;;;;6.00;6.00;;;;;;;;5144420;27;45450;-73
2021/08/20 08:33:48;;;;;;;;;5.67;5.67;;;;;;;;5164632;27;46076;-74
2021/08/20 08:36:13;;;;;;;;;7.33;6.00;;;;;;;;5146319;27;45284;-73
2021/08/20 08:38:39;;;;;;;;;4.33;4.33;;;;;;;;5144000;27;45545;-74
2021/08/20 08:41:04;;;;;;;;;6.33;6.00;;;;;;;;5146025;27;46115;-75
2021/08/20 08:43:30;;;;;;;;;6.67;5.00;;;;;;;;5146133;27;47153;-74
2021/08/20 08:46:03;;;;;;;;;8.00;5.00;;;;;;;;5146053;27;45515;-76
2021/08/20 08:48:30;;;;;;;;;4.33;4.00;;;;;;;;5146138;27;45278;-74
2021/08/20 08:51:00;;;;;;;;;7.67;7.00;;;;;;;;5145830;27;45465;-74
2021/08/20 08:53:26;;;;;;;;;5.67;4.33;;;;;;;;5146281;27;46986;-76
2021/08/20 08:55:53;;;;;;;;;14.00;14.00;;;;;;;;5145889;27;45269;-75
2021/08/20 08:58:18;;;;;;;;;4.67;4.00;;;;;;;;5146073;27;45376;-75
2021/08/20 09:00:43;;;;;;;;;6.00;6.00;;;;;;;;5145113;27;45528;-78
2021/08/20 09:03:26;;;;;;;;;5.67;5.67;;;;;;;;5164871;27;46178;-78
2021/08/20 09:05:54;;;;;;;;;6.67;6.67;;;;;;;;5145610;27;45329;-78
2021/08/20 09:08:20;;;;;;;;;5.33;5.00;;;;;;;;5142596;27;45260;-77
2021/08/20 09:10:56;;;;;;;;;6.00;6.00;;;;;;;;5145139;27;46469;-78
2021/08/20 09:13:23;;;;;;;;;6.00;6.00;;;;;;;;5143138;27;46138;-75
2021/08/20 09:16:07;;;;;;;;;7.33;6.00;;;;;;;;5163921;27;45273;-76
2021/08/20 09:18:32;;;;;;;;;5.00;5.00;;;;;;;;5163604;27;45304;-78
2021/08/20 09:20:58;;;;;;;;;4.33;4.33;;;;;;;;5144422;27;45546;-78
2021/08/20 09:23:24;;;;;;;;;6.00;6.00;;;;;;;;5145008;27;45770;-77
2021/08/20 09:25:50;;;;;;;;;3.67;3.67;;;;;;;;5145301;27;45502;-77
2021/08/20 09:28:15;;;;;;;;;5.33;5.33;;;;;;;;5165281;27;45340;-75
2021/08/20 09:30:43;;;;;;;;;4.00;4.00;;;;;;;;5141767;27;45707;-75
2021/08/20 09:33:10;;;;;;;;;5.33;4.67;;;;;;;;5138962;27;46853;-74
2021/08/20 09:35:36;;;;;;;;;5.00;5.00;;;;;;;;5164064;27;45218;-75
2021/08/20 09:38:12;;;;;;;;;4.00;4.00;;;;;;;;5132934;27;45468;-74
2021/08/20 09:40:40;;;;;;;;;6.00;6.00;;;;;;;;5143399;27;45359;-73
2021/08/20 09:43:18;;;;;;;;;5.00;5.00;;;;;;;;5124068;27;47394;-74
2021/08/20 09:46:03;;;;;;;;;4.67;4.67;;;;;;;;5123941;27;45461;-75
2021/08/20 09:48:38;;;;;;;;;5.00;5.00;;;;;;;;5136122;27;45370;-74
2021/08/20 09:51:03;;;;;;;;;6.00;4.00;;;;;;;;5163937;27;45506;-74
2021/08/20 09:53:28;;;;;;;;;5.33;5.33;;;;;;;;5164061;27;46083;-74
2021/08/20 09:55:54;;;;;;;;;5.33;5.00;;;;;;;;5163410;27;45288;-75
2021/08/20 09:58:27;;;;;;;;;5.67;5.00;;;;;;;;5144272;27;45191;-77
2021/08/20 10:00:55;;;;;;;;;6.67;6.67;;;;;;;;5144108;27;45620;-76
2021/08/20 10:03:20;;;;;;;;;5.67;4.67;;;;;;;;5144622;27;46887;-79
2021/08/20 10:05:50;;;;;;;;;4.00;4.00;;;;;;;;5144973;27;45638;-79
2021/08/20 10:08:15;;;;;;;;;5.00;5.00;;;;;;;;5145250;27;45348;-79
2021/08/20 10:10:45;;;;;;;;;7.00;7.00;;;;;;;;5163948;27;45402;-80
2021/08/20 10:13:14;;;;;;;;;5.33;5.33;;;;;;;;5145509;27;45631;-80
2021/08/20 10:15:39;;;;;;;;;5.00;5.00;;;;;;;;5163439;27;45362;-80
2021/08/20 10:18:06;;;;;;;;;7.33;6.00;;;;;;;;5144568;27;45243;-78
2021/08/20 10:20:34;;;;;;;;;5.33;5.33;;;;;;;;5143995;27;45227;-78
2021/08/20 10:22:59;;;;;;;;;5.00;5.00;;;;;;;;5163666;27;45670;-79
2021/08/20 10:25:25;;;;;;;;;3.67;3.67;;;;;;;;5144263;27;45265;-78
2021/08/20 10:27:53;;;;;;;;;6.00;5.00;;;;;;;;5141239;27;45337;-77
2021/08/20 10:30:18;;;;;;;;;4.33;4.33;;;;;;;;5131460;27;46891;-77
2021/08/20 10:33:00;;;;;;;;;4.67;4.67;;;;;;;;5163356;27;46323;-78
2021/08/20 10:35:44;;;;;;;;;4.67;4.33;;;;;;;;5144341;27;45359;-76
2021/08/20 10:38:42;;;;;;;;;3.33;3.00;;;;;;;;5144526;27;45241;-79
2021/08/20 10:41:07;;;;;;;;;4.00;4.00;;;;;;;;5116127;27;45541;-79
2021/08/20 10:44:02;;;;;;;;;4.00;4.00;;;;;;;;5162651;27;45254;-79
2021/08/20 10:46:47;;;;;;;;;3.00;3.00;;;;;;;;5101231;27;45519;-79
2021/08/20 10:49:17;;;;;;;;;4.67;4.00;;;;;;;;5125087;27;45573;-79
2021/08/20 10:51:51;;;;;;;;;2.00;2.00;;;;;;;;5162378;27;45434;-77
2021/08/20 10:54:17;;;;;;;;;3.00;3.00;;;;;;;;5161629;27;45320;-79
2021/08/20 10:56:46;;;;;;;;;2.00;2.00;;;;;;;;5157821;27;45484;-83
2021/08/20 10:59:30;;;;;;;;;2.33;2.33;;;;;;;;5139343;27;45692;-83
2021/08/20 11:02:14;;;;;;;;;3.00;3.00;;;;;;;;5160546;27;45899;-82
2021/08/20 11:04:58;;;;;;;;;2.67;2.67;;;;;;;;5142313;27;45639;-77
2021/08/20 11:07:36;;;;;;;;;1.67;1.67;;;;;;;;5159677;27;45180;-80
2021/08/20 11:10:07;;;;;;;;;2.00;2.00;;;;;;;;5163094;27;45429;-78
2021/08/20 11:13:01;;;;;;;;;0.67;0.67;;;;;;;;5159679;27;45592;-82
2021/08/20 11:15:30;;;;;;;;;3.33;2.00;;;;;;;;5132151;27;46780;-78
2021/08/20 11:18:03;;;;;;;;;3.00;3.00;;;;;;;;5138621;27;45733;-78
2021/08/20 11:20:38;;;;;;;;;2.33;2.33;;;;;;;;5140420;27;45241;-79
2021/08/20 11:23:12;;;;;;;;;4.00;4.00;;;;;;;;5162470;27;45264;-78
2021/08/20 11:25:41;;;;;;;;;3.00;3.00;;;;;;;;5162249;27;46428;-79
2021/08/20 11:28:14;;;;;;;;;1.33;1.33;;;;;;;;5162541;27;45362;-78
2021/08/20 11:30:40;;;;;;;;;1.67;1.67;;;;;;;;5162310;27;45243;-80
2021/08/20 11:33:10;;;;;;;;;1.67;1.67;;;;;;;;5162724;27;45197;-78
2021/08/20 11:35:35;;;;;;;;;2.33;2.33;;;;;;;;5142084;27;47217;-78
2021/08/20 11:38:01;;;;;;;;;2.00;2.00;;;;;;;;5162089;27;45330;-78
2021/08/20 11:40:26;;;;;;;;;1.67;1.67;;;;;;;;5162456;27;45312;-78
2021/08/20 11:43:05;;;;;;;;;1.50;1.50;;;;;;;;5162678;27;45144;-80
2021/08/20 11:45:30;;;;;;;;;5.00;3.67;;;;;;;;5162354;27;45327;-80
2021/08/20 11:47:59;;;;;;;;;6.00;5.00;;;;;;;;5162591;27;45135;-80
2021/08/20 11:50:25;;;;;;;;;1.67;1.67;;;;;;;;5143781;27;45311;-79
2021/08/20 11:53:11;;;;;;;;;5.67;5.67;;;;;;;;5123615;27;45414;-80
2021/08/20 11:55:36;;;;;;;;;8.00;7.33;;;;;;;;5162169;27;45395;-80
2021/08/20 11:58:01;;;;;;;;;3.67;3.00;;;;;;;;5162502;27;45159;-80
2021/08/20 12:00:37;;;;;;;;;5.33;5.33;;;;;;;;5143442;27;45226;-80
2021/08/20 12:03:06;;;;;;;;;6.00;6.00;;;;;;;;5161798;27;45359;-79
2021/08/20 12:05:31;;;;;;;;;4.00;3.33;;;;;;;;5164054;27;46474;-82
2021/08/20 12:07:56;;;;;;;;;7.67;5.00;;;;;;;;5145838;27;45508;-81
2021/08/20 12:10:22;;;;;;;;;3.00;1.67;;;;;;;;5139957;27;45609;-82
2021/08/20 12:12:48;;;;;;;;;2.67;2.67;;;;;;;;5132602;27;45588;-81
2021/08/20 12:15:16;;;;;;;;;4.67;4.00;;;;;;;;5147053;27;46143;-78
2021/08/20 12:17:44;;;;;;;;;2.33;1.67;;;;;;;;5146146;27;45222;-82
2021/08/20 12:20:16;;;;;;;;;1.00;1.00;;;;;;;;5147154;27;45250;-80
2021/08/20 12:22:49;;;;;;;;;4.00;4.00;;;;;;;;5146100;27;46346;-80
2021/08/20 12:25:16;;;;;;;;;1.67;1.67;;;;;;;;5145965;27;46806;-80
2021/08/20 12:27:42;;;;;;;;;3.00;2.67;;;;;;;;5165476;27;45339;-79
2021/08/20 12:30:14;;;;;;;;;3.00;3.00;;;;;;;;5146569;27;45231;-80
2021/08/20 12:32:43;;;;;;;;;2.00;1.00;;;;;;;;5146494;27;45384;-78
2021/08/20 12:35:14;;;;;;;;;2.00;2.00;;;;;;;;5146286;27;46813;-80
2021/08/20 12:37:39;;;;;;;;;1.75;1.75;;;;;;;;5146433;27;45316;-79
2021/08/20 12:40:04;;;;;;;;;1.00;1.00;;;;;;;;5165332;27;45330;-80
2021/08/20 12:42:30;;;;;;;;;1.75;1.75;;;;;;;;5165365;27;45324;-80
2021/08/20 12:45:12;;;;;;;;;0.25;0.25;;;;;;;;5165055;27;46433;-79
2021/08/20 12:47:38;;;;;;;;;1.00;1.00;;;;;;;;5164808;27;45356;-80
2021/08/20 12:50:05;;;;;;;;;1.00;1.00;;;;;;;;5135633;27;45930;-79
2021/08/20 12:52:30;;;;;;;;;0.25;0.25;;;;;;;;5141867;27;47127;-80
2021/08/20 12:54:56;;;;;;;;;3.00;3.00;;;;;;;;5143052;27;47663;-79
2021/08/20 12:57:21;;;;;;;;;1.00;1.00;;;;;;;;5125416;27;45234;-77
2021/08/20 12:59:48;;;;;;;;;1.00;1.00;;;;;;;;5124625;27;45268;-75
2021/08/20 13:02:13;;;;;;;;;2.00;2.00;;;;;;;;5126359;27;45725;-79
2021/08/20 13:04:38;;;;;;;;;2.00;2.00;;;;;;;;5164275;27;45402;-77
2021/08/20 13:07:04;;;;;;;;;2.33;1.33;;;;;;;;5164868;27;45296;-78
2021/08/20 13:09:29;;;;;;;;;2.67;2.33;;;;;;;;5146253;27;45345;-76
2021/08/20 13:11:58;;;;;;;;;2.00;2.00;;;;;;;;5165114;27;45221;-77
2021/08/20 13:14:23;;;;;;;;;1.00;1.00;;;;;;;;5146313;27;46497;-76
2021/08/20 13:16:54;;;;;;;;;3.00;3.00;;;;;;;;5163925;27;45293;-75
2021/08/20 13:19:20;;;;;;;;;1.00;1.00;;;;;;;;5165171;27;45224;-75
2021/08/20 13:21:45;;;;;;;;;0.00;0.00;;;;;;;;5164043;27;45341;-77
2021/08/20 13:24:10;;;;;;;;;6.33;5.00;;;;;;;;5164633;27;46121;-78
2021/08/20 13:26:36;;;;;;;;;2.33;2.33;;;;;;;;5164819;27;45371;-75
2021/08/20 13:29:01;;;;;;;;;32.00;29.33;;;;;;;;5164878;27;46090;-78
2021/08/20 13:31:29;;;;;;;;;37.00;32.00;;;;;;;;5149589;27;45606;-77
2021/08/20 13:33:55;;;;;;;;;4.00;3.67;;;;;;;;5142573;27;45356;-75
2021/08/20 13:36:20;;;;;;;;;3.00;2.67;;;;;;;;5149567;27;45387;-77
2021/08/20 13:38:46;;;;;;;;;2.67;2.67;;;;;;;;5163694;27;45382;-78
2021/08/20 13:41:11;;;;;;;;;2.33;2.00;;;;;;;;5155627;27;45640;-75
2021/08/20 13:43:36;;;;;;;;;4.67;3.00;;;;;;;;5162045;27;45361;-77
2021/08/20 13:46:02;;;;;;;;;1.67;1.67;;;;;;;;5162536;27;45261;-80
2021/08/20 13:48:27;;;;;;;;;2.00;2.00;;;;;;;;5156623;27;46636;-78
2021/08/20 13:50:53;;;;;;;;;2.33;2.33;;;;;;;;5142158;27;45297;-77
2021/08/20 13:53:18;;;;;;;;;2.33;2.33;;;;;;;;5143636;27;45331;-76
2021/08/20 13:55:44;;;;;;;;;1.67;1.67;;;;;;;;5162822;27;45187;-75
2021/08/20 13:58:11;;;;;;;;;3.33;2.67;;;;;;;;5163040;27;45241;-74
2021/08/20 14:00:37;;;;;;;;;8.00;7.00;;;;;;;;5162422;27;45482;-78
2021/08/20 14:03:03;;;;;;;;;3.33;3.33;;;;;;;;5162015;27;46730;-81
2021/08/20 14:05:29;;;;;;;;;20.67;19.67;;;;;;;;5152077;27;45646;-76
2021/08/20 14:07:55;;;;;;;;;3.67;3.67;;;;;;;;5152896;27;45577;-76
2021/08/20 14:10:21;;;;;;;;;2.33;2.00;;;;;;;;5163759;27;45516;-83
2021/08/20 14:12:46;;;;;;;;;3.33;3.33;;;;;;;;5143565;27;45316;-82
2021/08/20 14:15:11;;;;;;;;;11.33;10.33;;;;;;;;5123803;27;45353;-76
2021/08/20 14:17:37;;;;;;;;;1.67;1.67;;;;;;;;5123888;27;45262;-77
2021/08/20 14:20:08;;;;;;;;;1.00;1.00;;;;;;;;5146597;27;45171;-74
2021/08/20 14:22:37;;;;;;;;;4.33;4.33;;;;;;;;5163377;27;45470;-77
2021/08/20 14:25:03;;;;;;;;;2.00;1.00;;;;;;;;5141270;27;45471;-76
2021/08/20 14:27:31;;;;;;;;;2.00;2.00;;;;;;;;5144502;27;45425;-76
2021/08/20 14:29:57;;;;;;;;;3.00;3.00;;;;;;;;5143865;27;46802;-76
2021/08/20 14:32:22;;;;;;;;;2.00;2.00;;;;;;;;5151284;27;46042;-75
2021/08/20 14:34:47;;;;;;;;;2.00;2.00;;;;;;;;5163088;27;45336;-81
2021/08/20 14:37:12;;;;;;;;;2.00;2.00;;;;;;;;5144292;27;45328;-81
2021/08/20 14:39:38;;;;;;;;;2.33;2.33;;;;;;;;5162697;27;45503;-78
2021/08/20 14:42:03;;;;;;;;;3.33;3.33;;;;;;;;5143841;27;46768;-78
2021/08/20 14:44:29;;;;;;;;;6.00;6.00;;;;;;;;5164731;27;45378;-75